sensor_id;sensor_type;location;lat;lon;timestamp;P1;durP1;ratioP1;P2;durP2;ratioP2
9846;SDS011;4962;50.084;8.794;2022-08-21T00:01:43;0.00;;;0.00;;
9846;SDS011;4962;50.084;8.794;2022-08-21T00:04:10;0.00;;;0.00;;
9846;SDS011;4962;50.084;8.794;2022-08-21T00:06:37;0.00;;;0.00;;
9846;SDS011;4962;50.084;8.794;2022-08-21T00:09:05;0.00;;;0.00;;
9846;SDS011;4962;50.084;8.794;2022-08-21T00:11:33;0.00;;;0.00;;
9846;SDS011;4962;50.084;8.794;2022-08-21T00:14:02;0.00;;;0.00;;
9846;SDS011;4962;50.084;8.794;2022-08-21T00:16:30;0.00;;;0.00;;
9846;SDS011;4962;50.084;8.794;2022-08-21T00:18:59;0.10;;;0.10;;
9846;SDS011;4962;50.084;8.794;2022-08-21T00:21:26;0.00;;;0.00;;
9846;SDS011;4962;50.084;8.794;2022-08-21T00:23:53;0.00;;;0.00;;
9846;SDS011;4962;50.084;8.794;2022-08-21T00:26:21;0.00;;;0.00;;
9846;SDS011;4962;50.084;8.794;2022-08-21T00:28:51;0.00;;;0.00;;
9846;SDS011;4962;50.084;8.794;2022-08-21T00:31:18;0.00;;;0.00;;
9846;SDS011;4962;50.084;8.794;2022-08-21T00:33:45;0.00;;;0.00;;
9846;SDS011;4962;50.084;8.794;2022-08-21T00:36:13;0.00;;;0.00;;
9846;SDS011;4962;50.084;8.794;2022-08-21T00:38:41;0.00;;;0.00;;
9846;SDS011;4962;50.084;8.794;2022-08-21T00:41:08;0.00;;;0.00;;
9846;SDS011;4962;50.084;8.794;2022-08-21T00:43:37;0.00;;;0.00;;
9846;SDS011;4962;50.084;8.794;2022-08-21T00:46:05;0.00;;;0.00;;
9846;SDS011;4962;50.084;8.794;2022-08-21T00:48:33;0.00;;;0.00;;
9846;SDS011;4962;50.084;8.794;2022-08-21T00:51:03;0.00;;;0.00;;
9846;SDS011;4962;50.084;8.794;2022-08-21T00:53:34;0.00;;;0.00;;
9846;SDS011;4962;50.084;8.794;2022-08-21T00:56:03;0.10;;;0.10;;
9846;SDS011;4962;50.084;8.794;2022-08-21T00:58:33;0.10;;;0.10;;
9846;SDS011;4962;50.084;8.794;2022-08-21T01:01:02;0.08;;;0.08;;
9846;SDS011;4962;50.084;8.794;2022-08-21T01:03:31;0.05;;;0.05;;
9846;SDS011;4962;50.084;8.794;2022-08-21T01:05:58;0.00;;;0.00;;
9846;SDS011;4962;50.084;8.794;2022-08-21T01:08:25;0.00;;;0.00;;
9846;SDS011;4962;50.084;8.794;2022-08-21T01:10:55;0.00;;;0.00;;
9846;SDS011;4962;50.084;8.794;2022-08-21T01:13:25;0.00;;;0.00;;
9846;SDS011;4962;50.084;8.794;2022-08-21T01:15:54;0.10;;;0.10;;
9846;SDS011;4962;50.084;8.794;2022-08-21T01:18:23;0.10;;;0.10;;
9846;SDS011;4962;50.084;8.794;2022-08-21T01:21:02;0.05;;;0.05;;
9846;SDS011;4962;50.084;8.794;2022-08-21T01:23:31;0.03;;;0.03;;
9846;SDS011;4962;50.084;8.794;2022-08-21T01:26:00;0.00;;;0.00;;
9846;SDS011;4962;50.084;8.794;2022-08-21T01:28:28;0.00;;;0.00;;
9846;SDS011;4962;50.084;8.794;2022-08-21T01:30:59;0.00;;;0.00;;
9846;SDS011;4962;50.084;8.794;2022-08-21T01:33:28;0.00;;;0.00;;
9846;SDS011;4962;50.084;8.794;2022-08-21T01:35:55;0.00;;;0.00;;
9846;SDS011;4962;50.084;8.794;2022-08-21T01:38:24;0.00;;;0.00;;
9846;SDS011;4962;50.084;8.794;2022-08-21T01:40:51;0.00;;;0.00;;
9846;SDS011;4962;50.084;8.794;2022-08-21T01:43:18;0.00;;;0.00;;
9846;SDS011;4962;50.084;8.794;2022-08-21T01:45:45;0.00;;;0.00;;
9846;SDS011;4962;50.084;8.794;2022-08-21T01:48:12;0.00;;;0.00;;
9846;SDS011;4962;50.084;8.794;2022-08-21T01:50:39;0.00;;;0.00;;
9846;SDS011;4962;50.084;8.794;2022-08-21T01:53:06;0.00;;;0.00;;
9846;SDS011;4962;50.084;8.794;2022-08-21T01:55:34;0.00;;;0.00;;
9846;SDS011;4962;50.084;8.794;2022-08-21T01:58:01;0.00;;;0.00;;
9846;SDS011;4962;50.084;8.794;2022-08-21T02:00:28;0.00;;;0.00;;
9846;SDS011;4962;50.084;8.794;2022-08-21T02:02:55;0.00;;;0.00;;
9846;SDS011;4962;50.084;8.794;2022-08-21T02:05:22;0.00;;;0.00;;
9846;SDS011;4962;50.084;8.794;2022-08-21T02:07:50;0.00;;;0.00;;
9846;SDS011;4962;50.084;8.794;2022-08-21T02:10:19;0.00;;;0.00;;
9846;SDS011;4962;50.084;8.794;2022-08-21T02:12:49;0.00;;;0.00;;
9846;SDS011;4962;50.084;8.794;2022-08-21T02:15:16;0.00;;;0.00;;
9846;SDS011;4962;50.084;8.794;2022-08-21T02:17:45;0.00;;;0.00;;
9846;SDS011;4962;50.084;8.794;2022-08-21T02:20:15;0.10;;;0.10;;
9846;SDS011;4962;50.084;8.794;2022-08-21T02:22:46;0.00;;;0.00;;
9846;SDS011;4962;50.084;8.794;2022-08-21T02:25:12;0.00;;;0.00;;
9846;SDS011;4962;50.084;8.794;2022-08-21T02:27:40;0.00;;;0.00;;
9846;SDS011;4962;50.084;8.794;2022-08-21T02:32:41;0.10;;;0.10;;
9846;SDS011;4962;50.084;8.794;2022-08-21T02:35:08;0.00;;;0.00;;
9846;SDS011;4962;50.084;8.794;2022-08-21T02:37:42;0.00;;;0.00;;
9846;SDS011;4962;50.084;8.794;2022-08-21T02:40:10;0.00;;;0.00;;
9846;SDS011;4962;50.084;8.794;2022-08-21T02:42:38;0.00;;;0.00;;
9846;SDS011;4962;50.084;8.794;2022-08-21T02:45:06;0.00;;;0.00;;
9846;SDS011;4962;50.084;8.794;2022-08-21T02:47:35;0.00;;;0.00;;
9846;SDS011;4962;50.084;8.794;2022-08-21T02:50:02;0.08;;;0.08;;
9846;SDS011;4962;50.084;8.794;2022-08-21T02:52:30;0.10;;;0.10;;
9846;SDS011;4962;50.084;8.794;2022-08-21T02:54:58;0.00;;;0.00;;
9846;SDS011;4962;50.084;8.794;2022-08-21T02:57:25;0.00;;;0.00;;
9846;SDS011;4962;50.084;8.794;2022-08-21T02:59:52;0.00;;;0.00;;
9846;SDS011;4962;50.084;8.794;2022-08-21T03:02:18;0.00;;;0.00;;
9846;SDS011;4962;50.084;8.794;2022-08-21T03:04:47;0.00;;;0.00;;
9846;SDS011;4962;50.084;8.794;2022-08-21T03:07:14;0.00;;;0.00;;
9846;SDS011;4962;50.084;8.794;2022-08-21T03:09:41;0.00;;;0.00;;
9846;SDS011;4962;50.084;8.794;2022-08-21T03:12:08;0.00;;;0.00;;
9846;SDS011;4962;50.084;8.794;2022-08-21T03:14:35;0.00;;;0.00;;
9846;SDS011;4962;50.084;8.794;2022-08-21T03:17:03;0.00;;;0.00;;
9846;SDS011;4962;50.084;8.794;2022-08-21T03:19:30;0.00;;;0.00;;
9846;SDS011;4962;50.084;8.794;2022-08-21T03:21:58;0.00;;;0.00;;
9846;SDS011;4962;50.084;8.794;2022-08-21T03:24:25;0.00;;;0.00;;
9846;SDS011;4962;50.084;8.794;2022-08-21T03:26:52;0.00;;;0.00;;
9846;SDS011;4962;50.084;8.794;2022-08-21T03:29:19;0.00;;;0.00;;
9846;SDS011;4962;50.084;8.794;2022-08-21T03:31:46;0.00;;;0.00;;
9846;SDS011;4962;50.084;8.794;2022-08-21T03:34:12;0.00;;;0.00;;
9846;SDS011;4962;50.084;8.794;2022-08-21T03:36:40;0.00;;;0.00;;
9846;SDS011;4962;50.084;8.794;2022-08-21T03:39:08;0.00;;;0.00;;
9846;SDS011;4962;50.084;8.794;2022-08-21T03:41:35;0.00;;;0.00;;
9846;SDS011;4962;50.084;8.794;2022-08-21T03:44:02;0.00;;;0.00;;
9846;SDS011;4962;50.084;8.794;2022-08-21T03:46:29;0.03;;;0.03;;
9846;SDS011;4962;50.084;8.794;2022-08-21T03:48:56;0.00;;;0.00;;
9846;SDS011;4962;50.084;8.794;2022-08-21T03:51:23;0.00;;;0.00;;
9846;SDS011;4962;50.084;8.794;2022-08-21T03:53:50;0.00;;;0.00;;
9846;SDS011;4962;50.084;8.794;2022-08-21T03:56:18;0.00;;;0.00;;
9846;SDS011;4962;50.084;8.794;2022-08-21T03:58:45;0.00;;;0.00;;
9846;SDS011;4962;50.084;8.794;2022-08-21T04:01:13;0.03;;;0.03;;
9846;SDS011;4962;50.084;8.794;2022-08-21T04:03:40;0.00;;;0.00;;
9846;SDS011;4962;50.084;8.794;2022-08-21T04:06:18;0.00;;;0.00;;
9846;SDS011;4962;50.084;8.794;2022-08-21T04:08:44;0.00;;;0.00;;
9846;SDS011;4962;50.084;8.794;2022-08-21T04:11:11;0.00;;;0.00;;
9846;SDS011;4962;50.084;8.794;2022-08-21T04:13:41;0.00;;;0.00;;
9846;SDS011;4962;50.084;8.794;2022-08-21T04:16:08;0.00;;;0.00;;
9846;SDS011;4962;50.084;8.794;2022-08-21T04:18:34;0.00;;;0.00;;
9846;SDS011;4962;50.084;8.794;2022-08-21T04:21:03;0.00;;;0.00;;
9846;SDS011;4962;50.084;8.794;2022-08-21T04:23:38;0.00;;;0.00;;
9846;SDS011;4962;50.084;8.794;2022-08-21T04:26:06;0.00;;;0.00;;
9846;SDS011;4962;50.084;8.794;2022-08-21T04:28:33;0.00;;;0.00;;
9846;SDS011;4962;50.084;8.794;2022-08-21T04:31:02;0.00;;;0.00;;
9846;SDS011;4962;50.084;8.794;2022-08-21T04:33:29;0.00;;;0.00;;
9846;SDS011;4962;50.084;8.794;2022-08-21T04:35:56;0.00;;;0.00;;
9846;SDS011;4962;50.084;8.794;2022-08-21T04:38:23;0.00;;;0.00;;
9846;SDS011;4962;50.084;8.794;2022-08-21T04:40:51;0.00;;;0.00;;
9846;SDS011;4962;50.084;8.794;2022-08-21T04:43:18;0.00;;;0.00;;
9846;SDS011;4962;50.084;8.794;2022-08-21T04:45:48;0.00;;;0.00;;
9846;SDS011;4962;50.084;8.794;2022-08-21T04:48:19;0.00;;;0.00;;
9846;SDS011;4962;50.084;8.794;2022-08-21T04:50:49;0.00;;;0.00;;
9846;SDS011;4962;50.084;8.794;2022-08-21T04:53:19;0.00;;;0.00;;
9846;SDS011;4962;50.084;8.794;2022-08-21T04:55:48;0.05;;;0.05;;
9846;SDS011;4962;50.084;8.794;2022-08-21T04:58:18;0.00;;;0.00;;
9846;SDS011;4962;50.084;8.794;2022-08-21T05:00:48;0.00;;;0.00;;
9846;SDS011;4962;50.084;8.794;2022-08-21T05:03:19;0.00;;;0.00;;
9846;SDS011;4962;50.084;8.794;2022-08-21T05:05:46;0.00;;;0.00;;
9846;SDS011;4962;50.084;8.794;2022-08-21T05:08:14;0.00;;;0.00;;
9846;SDS011;4962;50.084;8.794;2022-08-21T05:10:44;0.00;;;0.00;;
9846;SDS011;4962;50.084;8.794;2022-08-21T05:13:11;0.00;;;0.00;;
9846;SDS011;4962;50.084;8.794;2022-08-21T05:15:39;0.00;;;0.00;;
9846;SDS011;4962;50.084;8.794;2022-08-21T05:18:07;0.00;;;0.00;;
9846;SDS011;4962;50.084;8.794;2022-08-21T05:20:35;0.00;;;0.00;;
9846;SDS011;4962;50.084;8.794;2022-08-21T05:23:06;0.00;;;0.00;;
9846;SDS011;4962;50.084;8.794;2022-08-21T05:25:33;0.00;;;0.00;;
9846;SDS011;4962;50.084;8.794;2022-08-21T05:28:01;0.00;;;0.00;;
9846;SDS011;4962;50.084;8.794;2022-08-21T05:30:28;0.00;;;0.00;;
9846;SDS011;4962;50.084;8.794;2022-08-21T05:32:56;0.00;;;0.00;;
9846;SDS011;4962;50.084;8.794;2022-08-21T05:35:24;0.00;;;0.00;;
9846;SDS011;4962;50.084;8.794;2022-08-21T05:37:53;0.10;;;0.10;;
9846;SDS011;4962;50.084;8.794;2022-08-21T05:40:20;0.10;;;0.10;;
9846;SDS011;4962;50.084;8.794;2022-08-21T05:42:47;0.10;;;0.10;;
9846;SDS011;4962;50.084;8.794;2022-08-21T05:45:14;0.10;;;0.10;;
9846;SDS011;4962;50.084;8.794;2022-08-21T05:47:41;0.10;;;0.10;;
9846;SDS011;4962;50.084;8.794;2022-08-21T05:50:08;0.10;;;0.10;;
9846;SDS011;4962;50.084;8.794;2022-08-21T05:52:36;0.10;;;0.10;;
9846;SDS011;4962;50.084;8.794;2022-08-21T05:55:04;0.10;;;0.10;;
9846;SDS011;4962;50.084;8.794;2022-08-21T05:57:31;0.10;;;0.10;;
9846;SDS011;4962;50.084;8.794;2022-08-21T05:59:58;0.10;;;0.10;;
9846;SDS011;4962;50.084;8.794;2022-08-21T06:02:25;0.10;;;0.10;;
9846;SDS011;4962;50.084;8.794;2022-08-21T06:04:52;0.10;;;0.10;;
9846;SDS011;4962;50.084;8.794;2022-08-21T06:07:19;0.10;;;0.10;;
9846;SDS011;4962;50.084;8.794;2022-08-21T06:09:45;0.10;;;0.10;;
9846;SDS011;4962;50.084;8.794;2022-08-21T06:12:14;0.10;;;0.10;;
9846;SDS011;4962;50.084;8.794;2022-08-21T06:14:41;0.10;;;0.10;;
9846;SDS011;4962;50.084;8.794;2022-08-21T06:17:09;0.10;;;0.10;;
9846;SDS011;4962;50.084;8.794;2022-08-21T06:19:38;0.10;;;0.10;;
9846;SDS011;4962;50.084;8.794;2022-08-21T06:22:05;0.10;;;0.10;;
9846;SDS011;4962;50.084;8.794;2022-08-21T06:24:32;0.10;;;0.10;;
9846;SDS011;4962;50.084;8.794;2022-08-21T06:27:03;0.20;;;0.20;;
9846;SDS011;4962;50.084;8.794;2022-08-21T06:29:33;0.10;;;0.10;;
9846;SDS011;4962;50.084;8.794;2022-08-21T06:32:00;0.10;;;0.10;;
9846;SDS011;4962;50.084;8.794;2022-08-21T06:34:28;0.10;;;0.10;;
9846;SDS011;4962;50.084;8.794;2022-08-21T06:36:55;0.10;;;0.10;;
9846;SDS011;4962;50.084;8.794;2022-08-21T06:39:22;0.10;;;0.10;;
9846;SDS011;4962;50.084;8.794;2022-08-21T06:41:49;0.10;;;0.10;;
9846;SDS011;4962;50.084;8.794;2022-08-21T06:44:16;0.10;;;0.10;;
9846;SDS011;4962;50.084;8.794;2022-08-21T06:46:45;0.10;;;0.10;;
9846;SDS011;4962;50.084;8.794;2022-08-21T06:49:12;0.20;;;0.20;;
9846;SDS011;4962;50.084;8.794;2022-08-21T06:51:39;0.13;;;0.13;;
9846;SDS011;4962;50.084;8.794;2022-08-21T06:54:06;0.15;;;0.15;;
9846;SDS011;4962;50.084;8.794;2022-08-21T06:56:34;0.10;;;0.10;;
9846;SDS011;4962;50.084;8.794;2022-08-21T06:59:03;0.10;;;0.10;;
9846;SDS011;4962;50.084;8.794;2022-08-21T07:01:30;0.10;;;0.10;;
9846;SDS011;4962;50.084;8.794;2022-08-21T07:03:58;0.20;;;0.20;;
9846;SDS011;4962;50.084;8.794;2022-08-21T07:06:25;0.20;;;0.20;;
9846;SDS011;4962;50.084;8.794;2022-08-21T07:08:52;0.10;;;0.10;;
9846;SDS011;4962;50.084;8.794;2022-08-21T07:11:21;0.20;;;0.20;;
9846;SDS011;4962;50.084;8.794;2022-08-21T07:13:49;0.17;;;0.17;;
9846;SDS011;4962;50.084;8.794;2022-08-21T07:16:19;0.20;;;0.20;;
9846;SDS011;4962;50.084;8.794;2022-08-21T07:18:46;0.20;;;0.20;;
9846;SDS011;4962;50.084;8.794;2022-08-21T07:21:15;0.20;;;0.20;;
9846;SDS011;4962;50.084;8.794;2022-08-21T07:23:43;0.20;;;0.20;;
9846;SDS011;4962;50.084;8.794;2022-08-21T07:26:13;0.20;;;0.20;;
9846;SDS011;4962;50.084;8.794;2022-08-21T07:28:41;0.20;;;0.20;;
9846;SDS011;4962;50.084;8.794;2022-08-21T07:31:09;0.20;;;0.20;;
9846;SDS011;4962;50.084;8.794;2022-08-21T07:33:39;0.20;;;0.20;;
9846;SDS011;4962;50.084;8.794;2022-08-21T07:36:07;0.20;;;0.20;;
9846;SDS011;4962;50.084;8.794;2022-08-21T07:38:35;0.20;;;0.20;;
9846;SDS011;4962;50.084;8.794;2022-08-21T07:41:04;0.20;;;0.20;;
9846;SDS011;4962;50.084;8.794;2022-08-21T07:43:36;0.20;;;0.20;;
9846;SDS011;4962;50.084;8.794;2022-08-21T07:46:04;0.20;;;0.20;;
9846;SDS011;4962;50.084;8.794;2022-08-21T07:48:31;0.20;;;0.20;;
9846;SDS011;4962;50.084;8.794;2022-08-21T07:50:58;0.20;;;0.20;;
9846;SDS011;4962;50.084;8.794;2022-08-21T07:53:28;0.20;;;0.20;;
9846;SDS011;4962;50.084;8.794;2022-08-21T07:55:58;0.20;;;0.20;;
9846;SDS011;4962;50.084;8.794;2022-08-21T07:58:24;0.20;;;0.20;;
9846;SDS011;4962;50.084;8.794;2022-08-21T08:00:52;0.20;;;0.20;;
9846;SDS011;4962;50.084;8.794;2022-08-21T08:03:19;0.20;;;0.20;;
9846;SDS011;4962;50.084;8.794;2022-08-21T08:05:45;0.20;;;0.20;;
9846;SDS011;4962;50.084;8.794;2022-08-21T08:08:12;0.20;;;0.20;;
9846;SDS011;4962;50.084;8.794;2022-08-21T08:10:39;0.20;;;0.20;;
9846;SDS011;4962;50.084;8.794;2022-08-21T08:13:08;0.20;;;0.20;;
9846;SDS011;4962;50.084;8.794;2022-08-21T08:15:36;0.20;;;0.20;;
9846;SDS011;4962;50.084;8.794;2022-08-21T08:18:03;0.10;;;0.10;;
9846;SDS011;4962;50.084;8.794;2022-08-21T08:20:32;0.10;;;0.10;;
9846;SDS011;4962;50.084;8.794;2022-08-21T08:22:59;0.10;;;0.10;;
9846;SDS011;4962;50.084;8.794;2022-08-21T08:25:26;0.10;;;0.10;;
9846;SDS011;4962;50.084;8.794;2022-08-21T08:27:53;0.10;;;0.10;;
9846;SDS011;4962;50.084;8.794;2022-08-21T08:30:22;0.10;;;0.10;;
9846;SDS011;4962;50.084;8.794;2022-08-21T08:32:49;0.10;;;0.10;;
9846;SDS011;4962;50.084;8.794;2022-08-21T08:35:16;0.10;;;0.10;;
9846;SDS011;4962;50.084;8.794;2022-08-21T08:37:44;0.10;;;0.10;;
9846;SDS011;4962;50.084;8.794;2022-08-21T08:40:12;0.10;;;0.10;;
9846;SDS011;4962;50.084;8.794;2022-08-21T08:42:44;0.10;;;0.10;;
9846;SDS011;4962;50.084;8.794;2022-08-21T08:45:16;0.10;;;0.10;;
9846;SDS011;4962;50.084;8.794;2022-08-21T08:47:47;0.10;;;0.10;;
9846;SDS011;4962;50.084;8.794;2022-08-21T08:50:17;0.00;;;0.00;;
9846;SDS011;4962;50.084;8.794;2022-08-21T08:52:48;0.10;;;0.10;;
9846;SDS011;4962;50.084;8.794;2022-08-21T08:55:20;0.00;;;0.00;;
9846;SDS011;4962;50.084;8.794;2022-08-21T08:57:49;0.10;;;0.10;;
9846;SDS011;4962;50.084;8.794;2022-08-21T09:00:19;0.08;;;0.08;;
9846;SDS011;4962;50.084;8.794;2022-08-21T09:02:49;0.10;;;0.10;;
9846;SDS011;4962;50.084;8.794;2022-08-21T09:05:21;0.00;;;0.00;;
9846;SDS011;4962;50.084;8.794;2022-08-21T09:07:54;0.08;;;0.08;;
9846;SDS011;4962;50.084;8.794;2022-08-21T09:10:43;0.03;;;0.03;;
9846;SDS011;4962;50.084;8.794;2022-08-21T09:13:24;0.08;;;0.08;;
9846;SDS011;4962;50.084;8.794;2022-08-21T09:16:00;0.10;;;0.10;;
9846;SDS011;4962;50.084;8.794;2022-08-21T09:18:38;0.00;;;0.00;;
9846;SDS011;4962;50.084;8.794;2022-08-21T09:21:18;0.10;;;0.10;;
9846;SDS011;4962;50.084;8.794;2022-08-21T09:24:10;0.00;;;0.00;;
9846;SDS011;4962;50.084;8.794;2022-08-21T09:26:52;0.00;;;0.00;;
9846;SDS011;4962;50.084;8.794;2022-08-21T09:29:26;0.00;;;0.00;;
9846;SDS011;4962;50.084;8.794;2022-08-21T09:31:54;0.00;;;0.00;;
9846;SDS011;4962;50.084;8.794;2022-08-21T09:34:25;0.10;;;0.10;;
9846;SDS011;4962;50.084;8.794;2022-08-21T09:36:54;0.00;;;0.00;;
9846;SDS011;4962;50.084;8.794;2022-08-21T09:39:23;0.00;;;0.00;;
9846;SDS011;4962;50.084;8.794;2022-08-21T09:41:55;0.00;;;0.00;;
9846;SDS011;4962;50.084;8.794;2022-08-21T09:44:24;0.00;;;0.00;;
9846;SDS011;4962;50.084;8.794;2022-08-21T09:46:52;0.00;;;0.00;;
9846;SDS011;4962;50.084;8.794;2022-08-21T09:49:27;0.00;;;0.00;;
9846;SDS011;4962;50.084;8.794;2022-08-21T09:51:55;0.00;;;0.00;;
9846;SDS011;4962;50.084;8.794;2022-08-21T09:54:26;0.00;;;0.00;;
9846;SDS011;4962;50.084;8.794;2022-08-21T09:56:57;0.00;;;0.00;;
9846;SDS011;4962;50.084;8.794;2022-08-21T09:59:43;0.00;;;0.00;;
9846;SDS011;4962;50.084;8.794;2022-08-21T10:02:19;0.10;;;0.10;;
9846;SDS011;4962;50.084;8.794;2022-08-21T10:04:52;0.00;;;0.00;;
9846;SDS011;4962;50.084;8.794;2022-08-21T10:07:21;0.00;;;0.00;;
9846;SDS011;4962;50.084;8.794;2022-08-21T10:09:58;0.00;;;0.00;;
9846;SDS011;4962;50.084;8.794;2022-08-21T10:12:32;0.00;;;0.00;;
9846;SDS011;4962;50.084;8.794;2022-08-21T10:15:10;0.00;;;0.00;;
9846;SDS011;4962;50.084;8.794;2022-08-21T10:17:46;0.00;;;0.00;;
9846;SDS011;4962;50.084;8.794;2022-08-21T10:20:20;0.08;;;0.08;;
9846;SDS011;4962;50.084;8.794;2022-08-21T10:22:53;0.00;;;0.00;;
9846;SDS011;4962;50.084;8.794;2022-08-21T10:25:35;0.00;;;0.00;;
9846;SDS011;4962;50.084;8.794;2022-08-21T10:28:10;0.00;;;0.00;;
9846;SDS011;4962;50.084;8.794;2022-08-21T10:30:45;0.00;;;0.00;;
9846;SDS011;4962;50.084;8.794;2022-08-21T10:33:26;0.00;;;0.00;;
9846;SDS011;4962;50.084;8.794;2022-08-21T10:36:02;0.00;;;0.00;;
9846;SDS011;4962;50.084;8.794;2022-08-21T10:38:58;0.00;;;0.00;;
9846;SDS011;4962;50.084;8.794;2022-08-21T10:41:37;0.00;;;0.00;;
9846;SDS011;4962;50.084;8.794;2022-08-21T10:44:17;0.00;;;0.00;;
9846;SDS011;4962;50.084;8.794;2022-08-21T10:46:54;0.00;;;0.00;;
9846;SDS011;4962;50.084;8.794;2022-08-21T10:49:31;0.00;;;0.00;;
9846;SDS011;4962;50.084;8.794;2022-08-21T10:54:56;0.00;;;0.00;;
9846;SDS011;4962;50.084;8.794;2022-08-21T10:57:32;0.00;;;0.00;;
9846;SDS011;4962;50.084;8.794;2022-08-21T11:00:17;0.00;;;0.00;;
9846;SDS011;4962;50.084;8.794;2022-08-21T11:02:48;0.00;;;0.00;;
9846;SDS011;4962;50.084;8.794;2022-08-21T11:05:24;0.00;;;0.00;;
9846;SDS011;4962;50.084;8.794;2022-08-21T11:07:58;0.00;;;0.00;;
9846;SDS011;4962;50.084;8.794;2022-08-21T11:10:30;0.00;;;0.00;;
9846;SDS011;4962;50.084;8.794;2022-08-21T11:13:04;0.00;;;0.00;;
9846;SDS011;4962;50.084;8.794;2022-08-21T11:15:39;0.00;;;0.00;;
9846;SDS011;4962;50.084;8.794;2022-08-21T11:18:19;0.00;;;0.00;;
9846;SDS011;4962;50.084;8.794;2022-08-21T11:20:51;0.00;;;0.00;;
9846;SDS011;4962;50.084;8.794;2022-08-21T11:23:28;0.00;;;0.00;;
9846;SDS011;4962;50.084;8.794;2022-08-21T11:26:04;0.00;;;0.00;;
9846;SDS011;4962;50.084;8.794;2022-08-21T11:28:35;0.00;;;0.00;;
9846;SDS011;4962;50.084;8.794;2022-08-21T11:31:10;0.10;;;0.10;;
9846;SDS011;4962;50.084;8.794;2022-08-21T11:33:53;0.00;;;0.00;;
9846;SDS011;4962;50.084;8.794;2022-08-21T11:36:38;0.00;;;0.00;;
9846;SDS011;4962;50.084;8.794;2022-08-21T11:39:14;0.00;;;0.00;;
9846;SDS011;4962;50.084;8.794;2022-08-21T11:41:51;0.03;;;0.03;;
9846;SDS011;4962;50.084;8.794;2022-08-21T11:44:31;0.00;;;0.00;;
9846;SDS011;4962;50.084;8.794;2022-08-21T11:47:10;0.00;;;0.00;;
9846;SDS011;4962;50.084;8.794;2022-08-21T11:49:53;0.00;;;0.00;;
9846;SDS011;4962;50.084;8.794;2022-08-21T11:52:32;0.03;;;0.03;;
9846;SDS011;4962;50.084;8.794;2022-08-21T11:55:06;0.10;;;0.10;;
9846;SDS011;4962;50.084;8.794;2022-08-21T11:57:38;0.00;;;0.00;;
9846;SDS011;4962;50.084;8.794;2022-08-21T12:00:12;0.00;;;0.00;;
9846;SDS011;4962;50.084;8.794;2022-08-21T12:02:45;0.00;;;0.00;;
9846;SDS011;4962;50.084;8.794;2022-08-21T12:05:22;0.10;;;0.10;;
9846;SDS011;4962;50.084;8.794;2022-08-21T12:08:00;0.00;;;0.00;;
9846;SDS011;4962;50.084;8.794;2022-08-21T12:10:35;0.00;;;0.00;;
9846;SDS011;4962;50.084;8.794;2022-08-21T12:13:06;0.10;;;0.10;;
9846;SDS011;4962;50.084;8.794;2022-08-21T12:15:36;0.00;;;0.00;;
9846;SDS011;4962;50.084;8.794;2022-08-21T12:18:04;0.08;;;0.08;;
9846;SDS011;4962;50.084;8.794;2022-08-21T12:20:35;0.00;;;0.00;;
9846;SDS011;4962;50.084;8.794;2022-08-21T12:23:15;0.10;;;0.10;;
9846;SDS011;4962;50.084;8.794;2022-08-21T12:26:00;0.00;;;0.00;;
9846;SDS011;4962;50.084;8.794;2022-08-21T12:28:47;0.00;;;0.00;;
9846;SDS011;4962;50.084;8.794;2022-08-21T12:31:22;0.00;;;0.00;;
9846;SDS011;4962;50.084;8.794;2022-08-21T12:33:54;0.00;;;0.00;;
9846;SDS011;4962;50.084;8.794;2022-08-21T12:36:24;0.00;;;0.00;;
9846;SDS011;4962;50.084;8.794;2022-08-21T12:39:10;0.00;;;0.00;;
9846;SDS011;4962;50.084;8.794;2022-08-21T12:41:43;0.10;;;0.10;;
9846;SDS011;4962;50.084;8.794;2022-08-21T12:44:14;0.00;;;0.00;;
9846;SDS011;4962;50.084;8.794;2022-08-21T12:46:44;0.00;;;0.00;;
9846;SDS011;4962;50.084;8.794;2022-08-21T12:49:16;0.10;;;0.10;;
9846;SDS011;4962;50.084;8.794;2022-08-21T12:51:54;0.00;;;0.00;;
9846;SDS011;4962;50.084;8.794;2022-08-21T12:54:28;0.00;;;0.00;;
9846;SDS011;4962;50.084;8.794;2022-08-21T12:56:59;0.00;;;0.00;;
9846;SDS011;4962;50.084;8.794;2022-08-21T12:59:27;0.00;;;0.00;;
9846;SDS011;4962;50.084;8.794;2022-08-21T13:01:55;0.00;;;0.00;;
9846;SDS011;4962;50.084;8.794;2022-08-21T13:04:27;0.00;;;0.00;;
9846;SDS011;4962;50.084;8.794;2022-08-21T13:07:05;0.00;;;0.00;;
9846;SDS011;4962;50.084;8.794;2022-08-21T13:09:36;0.00;;;0.00;;
9846;SDS011;4962;50.084;8.794;2022-08-21T13:12:09;0.00;;;0.00;;
9846;SDS011;4962;50.084;8.794;2022-08-21T13:14:37;0.00;;;0.00;;
9846;SDS011;4962;50.084;8.794;2022-08-21T13:17:06;0.00;;;0.00;;
9846;SDS011;4962;50.084;8.794;2022-08-21T13:19:34;0.00;;;0.00;;
9846;SDS011;4962;50.084;8.794;2022-08-21T13:22:17;0.00;;;0.00;;
9846;SDS011;4962;50.084;8.794;2022-08-21T13:24:46;0.00;;;0.00;;
9846;SDS011;4962;50.084;8.794;2022-08-21T13:27:19;0.00;;;0.00;;
9846;SDS011;4962;50.084;8.794;2022-08-21T13:30:06;0.00;;;0.00;;
9846;SDS011;4962;50.084;8.794;2022-08-21T13:32:37;0.08;;;0.08;;
9846;SDS011;4962;50.084;8.794;2022-08-21T13:35:07;0.00;;;0.00;;
9846;SDS011;4962;50.084;8.794;2022-08-21T13:37:37;0.00;;;0.00;;
9846;SDS011;4962;50.084;8.794;2022-08-21T13:40:07;0.00;;;0.00;;
9846;SDS011;4962;50.084;8.794;2022-08-21T13:42:39;0.00;;;0.00;;
9846;SDS011;4962;50.084;8.794;2022-08-21T13:45:12;0.00;;;0.00;;
9846;SDS011;4962;50.084;8.794;2022-08-21T13:47:48;0.05;;;0.05;;
9846;SDS011;4962;50.084;8.794;2022-08-21T13:50:16;0.00;;;0.00;;
9846;SDS011;4962;50.084;8.794;2022-08-21T13:52:46;0.10;;;0.10;;
9846;SDS011;4962;50.084;8.794;2022-08-21T13:55:16;0.00;;;0.00;;
9846;SDS011;4962;50.084;8.794;2022-08-21T13:57:45;0.00;;;0.00;;
9846;SDS011;4962;50.084;8.794;2022-08-21T14:00:14;0.00;;;0.00;;
9846;SDS011;4962;50.084;8.794;2022-08-21T14:02:43;0.00;;;0.00;;
9846;SDS011;4962;50.084;8.794;2022-08-21T14:05:18;0.05;;;0.05;;
9846;SDS011;4962;50.084;8.794;2022-08-21T14:07:48;0.00;;;0.00;;
9846;SDS011;4962;50.084;8.794;2022-08-21T14:10:18;0.00;;;0.00;;
9846;SDS011;4962;50.084;8.794;2022-08-21T14:12:49;0.00;;;0.00;;
9846;SDS011;4962;50.084;8.794;2022-08-21T14:15:23;0.05;;;0.05;;
9846;SDS011;4962;50.084;8.794;2022-08-21T14:17:53;0.10;;;0.10;;
9846;SDS011;4962;50.084;8.794;2022-08-21T14:20:28;0.10;;;0.10;;
9846;SDS011;4962;50.084;8.794;2022-08-21T14:22:57;0.00;;;0.00;;
9846;SDS011;4962;50.084;8.794;2022-08-21T14:25:29;0.00;;;0.00;;
9846;SDS011;4962;50.084;8.794;2022-08-21T14:28:07;0.10;;;0.10;;
9846;SDS011;4962;50.084;8.794;2022-08-21T14:30:42;0.10;;;0.10;;
9846;SDS011;4962;50.084;8.794;2022-08-21T14:33:10;0.10;;;0.10;;
9846;SDS011;4962;50.084;8.794;2022-08-21T14:35:39;0.00;;;0.00;;
9846;SDS011;4962;50.084;8.794;2022-08-21T14:38:11;0.10;;;0.10;;
9846;SDS011;4962;50.084;8.794;2022-08-21T14:40:40;0.00;;;0.00;;
9846;SDS011;4962;50.084;8.794;2022-08-21T14:43:10;0.00;;;0.00;;
9846;SDS011;4962;50.084;8.794;2022-08-21T14:45:37;0.00;;;0.00;;
9846;SDS011;4962;50.084;8.794;2022-08-21T14:48:06;0.00;;;0.00;;
9846;SDS011;4962;50.084;8.794;2022-08-21T14:50:33;0.05;;;0.05;;
9846;SDS011;4962;50.084;8.794;2022-08-21T14:53:00;0.00;;;0.00;;
9846;SDS011;4962;50.084;8.794;2022-08-21T14:55:29;0.10;;;0.10;;
9846;SDS011;4962;50.084;8.794;2022-08-21T14:58:18;0.10;;;0.10;;
9846;SDS011;4962;50.084;8.794;2022-08-21T15:00:47;0.00;;;0.00;;
9846;SDS011;4962;50.084;8.794;2022-08-21T15:03:15;0.03;;;0.03;;
9846;SDS011;4962;50.084;8.794;2022-08-21T15:05:42;0.00;;;0.00;;
9846;SDS011;4962;50.084;8.794;2022-08-21T15:08:09;0.10;;;0.10;;
9846;SDS011;4962;50.084;8.794;2022-08-21T15:10:36;0.00;;;0.00;;
9846;SDS011;4962;50.084;8.794;2022-08-21T15:13:03;0.00;;;0.00;;
9846;SDS011;4962;50.084;8.794;2022-08-21T15:15:34;0.10;;;0.10;;
9846;SDS011;4962;50.084;8.794;2022-08-21T15:18:04;0.10;;;0.10;;
9846;SDS011;4962;50.084;8.794;2022-08-21T15:20:32;0.00;;;0.00;;
9846;SDS011;4962;50.084;8.794;2022-08-21T15:22:59;0.00;;;0.00;;
9846;SDS011;4962;50.084;8.794;2022-08-21T15:25:27;0.10;;;0.10;;
9846;SDS011;4962;50.084;8.794;2022-08-21T15:27:54;0.00;;;0.00;;
9846;SDS011;4962;50.084;8.794;2022-08-21T15:30:21;0.10;;;0.10;;
9846;SDS011;4962;50.084;8.794;2022-08-21T15:32:50;0.10;;;0.10;;
9846;SDS011;4962;50.084;8.794;2022-08-21T15:35:17;0.03;;;0.03;;
9846;SDS011;4962;50.084;8.794;2022-08-21T15:37:44;0.00;;;0.00;;
9846;SDS011;4962;50.084;8.794;2022-08-21T15:40:11;0.10;;;0.10;;